Hovedside
METAR-TAF:

METAR-TAF

Lufthavner :

Røros lufthavn

Røros, Norge

breddegrad: 62-35N, lengdegrad: 011-21E, høyde over havet: 626 m

Gjeldene værobservasjon

Denne rapporten ble laget for 20 minutter siden, klokken 04:50 UTC
Vind 3 kt fra skiftende retning
Temperatur 6°C
Luftfuktighet 52%
Trykk 1017 hPa
Sikt 10 km eller mer
ingen skyer under 1500 m og ingen bygeskyer

METAR: ENRO 250450Z VRB03KT CAVOK 06/M03 Q1017

Tid: 07:10 (05:10 UTC)

Varsel

Denne rapporten ble laget for 3 timer og 10 minutter siden, klokken 02:00 UTC
Varsel gyldig fra 25. klokken 03 UTC til 25. klokken 12 UTC
Vind 8 kt fra Sørøst
Sikt 10 km eller mer
ingen skyer under 1500 m og ingen bygeskyer
Midlertidig
fra 25. klokken 08 UTC til 25. klokken 12 UTC
Vind 15 kt fra Sør-sørøst med vindkast opp mot 25 kt

TAF: ENRO 250200Z 2503/2512 13008KT CAVOK TEMPO 2508/2512 15015G25KT

Værobservasjoner og værvarsel for over 4000 flyplasser (METAR- og TAF-rapporter).

Tilgjengelige stasjoner er representert av de røde og gule prikkene på kartet.

Hold musepekeren over prikken for å se navnet på stasjonen.

Klikk så for å se værobservasjoner og -varsler.

For å forandre kartet kan du klikke på den grønne knappen med svart kryss for å zoome inn, på den grønne knappen med strek for å zoome ut, eller på de grønne pilene for å se tilstøtende kart.


METAR-TAF: